Time;durP1;ratioP1;P1;durP2;ratioP2;P2;SDS_P1;SDS_P2;PMS_P1;PMS_P2;Temp;Humidity;BMP_temperature;BMP_pressure;BME280_temperature;BME280_humidity;BME280_pressure;Samples;Min_cycle;Max_cycle;Signal;HPM_P1;HPM_P2
2022/12/20 00:01:29;;;;;;;5.93;3.50;;;11.60;99.90;;;;;;4958826;28;20053;-76
2022/12/20 00:03:59;;;;;;;6.45;3.72;;;11.60;99.90;;;;;;4939232;28;20043;-77
2022/12/20 00:06:26;;;;;;;8.63;3.90;;;11.60;99.90;;;;;;4964701;28;20045;-78
2022/12/20 00:08:56;;;;;;;7.25;3.90;;;11.60;99.90;;;;;;4963390;28;20051;-75
2022/12/20 00:11:24;;;;;;;5.82;3.70;;;11.60;99.90;;;;;;4981760;28;20142;-75
2022/12/20 00:13:52;;;;;;;6.53;3.17;;;11.60;99.90;;;;;;4962547;28;20047;-77
2022/12/20 00:16:22;;;;;;;5.97;4.32;;;11.60;99.90;;;;;;4962866;28;20110;-77
2022/12/20 00:18:57;;;;;;;8.82;3.92;;;11.60;99.90;;;;;;4967945;28;20053;-76
2022/12/20 00:21:26;;;;;;;5.57;3.65;;;11.60;99.90;;;;;;4965600;28;20038;-76
2022/12/20 00:23:54;;;;;;;6.97;3.80;;;11.60;99.90;;;;;;4970120;28;20061;-77
2022/12/20 00:26:24;;;;;;;6.22;3.53;;;11.60;99.90;;;;;;4944851;28;20074;-77
2022/12/20 00:28:53;;;;;;;7.40;4.20;;;11.60;99.90;;;;;;4941007;28;20553;-76
2022/12/20 00:31:22;;;;;;;7.40;3.53;;;11.60;99.90;;;;;;4957782;28;20496;-76
2022/12/20 00:33:51;;;;;;;6.85;3.55;;;11.50;99.90;;;;;;4963894;28;20126;-76
2022/12/20 00:36:20;;;;;;;7.72;3.28;;;11.50;99.90;;;;;;4959252;28;20042;-76
2022/12/20 00:38:50;;;;;;;7.20;4.70;;;11.60;99.90;;;;;;4952169;28;20049;-77
2022/12/20 00:41:20;;;;;;;7.28;3.45;;;11.50;99.90;;;;;;4958499;28;20461;-76
2022/12/20 00:43:48;;;;;;;5.93;3.83;;;11.50;99.90;;;;;;4977769;28;20521;-76
2022/12/20 00:46:17;;;;;;;6.15;3.10;;;11.50;99.90;;;;;;4961413;28;20498;-76
2022/12/20 00:48:45;;;;;;;6.40;3.30;;;11.50;99.90;;;;;;4956333;28;20134;-76
2022/12/20 00:51:18;;;;;;;7.03;3.28;;;11.50;99.90;;;;;;4958283;28;20094;-75
2022/12/20 00:53:46;;;;;;;5.80;3.03;;;11.50;99.90;;;;;;4963388;28;20141;-76
2022/12/20 00:56:14;;;;;;;5.85;3.80;;;11.50;99.90;;;;;;4964154;28;20057;-76
2022/12/20 00:58:43;;;;;;;7.70;3.30;;;11.50;99.90;;;;;;4965424;28;20039;-76
2022/12/20 01:01:17;;;;;;;6.05;3.58;;;11.50;99.90;;;;;;4941048;28;20038;-77
2022/12/20 01:03:48;;;;;;;6.00;3.15;;;11.50;99.90;;;;;;4967565;28;20058;-77
2022/12/20 01:06:17;;;;;;;5.20;2.78;;;11.50;99.90;;;;;;4970681;28;20043;-76
2022/12/20 01:08:45;;;;;;;4.43;2.92;;;11.50;99.90;;;;;;4958892;28;20035;-75
2022/12/20 01:11:14;;;;;;;6.07;3.83;;;11.50;99.90;;;;;;4956373;28;20120;-75
2022/12/20 01:13:45;;;;;;;8.32;3.63;;;11.50;99.90;;;;;;4969213;28;20161;-76
2022/12/20 01:16:23;;;;;;;6.03;3.38;;;11.50;99.90;;;;;;4962489;28;20157;-76
2022/12/20 01:18:52;;;;;;;4.32;2.80;;;11.40;99.90;;;;;;4957264;28;20052;-76
2022/12/20 01:21:21;;;;;;;6.47;2.90;;;11.40;99.90;;;;;;4957223;28;20497;-76
2022/12/20 01:23:48;;;;;;;5.20;2.97;;;11.30;99.90;;;;;;4948541;28;20497;-77
2022/12/20 01:26:19;;;;;;;9.57;3.90;;;11.30;99.90;;;;;;4964156;28;20047;-77
2022/12/20 01:28:47;;;;;;;8.15;3.20;;;11.20;99.90;;;;;;4941464;29;20046;-76
2022/12/20 01:31:17;;;;;;;6.40;3.25;;;11.20;99.90;;;;;;4945236;29;20051;-76
2022/12/20 01:33:48;;;;;;;5.30;2.63;;;11.10;99.90;;;;;;4962941;28;20066;-76
2022/12/20 01:36:19;;;;;;;3.78;2.60;;;11.10;99.90;;;;;;4959328;28;20075;-77
2022/12/20 01:38:46;;;;;;;5.85;4.13;;;11.10;99.90;;;;;;4978215;28;20073;-76
2022/12/20 01:41:17;;;;;;;5.35;2.97;;;11.10;99.90;;;;;;4959563;28;20059;-76
2022/12/20 01:44:05;;;;;;;7.25;3.67;;;11.00;99.90;;;;;;4960843;28;20167;-77
2022/12/20 01:46:35;;;;;;;7.35;3.50;;;11.00;99.90;;;;;;4947717;28;20560;-77
2022/12/20 01:49:25;;;;;;;7.32;3.15;;;11.00;99.90;;;;;;4942857;28;20056;-76
2022/12/20 01:51:59;;;;;;;4.70;2.45;;;11.00;99.90;;;;;;4925716;29;20083;-77
2022/12/20 01:54:40;;;;;;;4.10;2.25;;;11.00;99.90;;;;;;4964284;28;20105;-75
2022/12/20 01:57:13;;;;;;;6.57;3.63;;;11.00;99.90;;;;;;4941790;28;20354;-76
2022/12/20 01:59:45;;;;;;;8.10;3.83;;;11.00;99.90;;;;;;4966203;28;20062;-76
2022/12/20 02:02:13;;;;;;;7.25;3.13;;;11.10;99.90;;;;;;4967050;28;20039;-78
2022/12/20 02:04:40;;;;;;;4.85;3.10;;;11.10;99.90;;;;;;4956101;28;20379;-76
2022/12/20 02:07:16;;;;;;;7.40;4.07;;;11.10;99.90;;;;;;4933683;28;20039;-76
2022/12/20 02:09:44;;;;;;;6.82;4.40;;;11.00;99.90;;;;;;4962039;28;20055;-76
2022/12/20 02:12:15;;;;;;;8.80;4.03;;;11.00;99.90;;;;;;4976681;28;20042;-75
2022/12/20 02:14:54;;;;;;;5.85;3.95;;;11.00;99.90;;;;;;4946932;29;20401;-76
2022/12/20 02:17:30;;;;;;;7.93;4.90;;;10.90;99.90;;;;;;4962463;28;20042;-75
2022/12/20 02:20:21;;;;;;;10.25;4.38;;;10.90;99.90;;;;;;4968548;28;20462;-76
2022/12/20 02:23:04;;;;;;;8.15;4.22;;;10.90;99.90;;;;;;4972105;28;20110;-76
2022/12/20 02:25:41;;;;;;;8.23;4.57;;;10.90;99.90;;;;;;4960173;28;20044;-77
2022/12/20 02:28:41;;;;;;;6.97;4.07;;;10.80;99.90;;;;;;4955264;28;20529;-76
2022/12/20 02:31:12;;;;;;;8.32;4.90;;;10.80;99.90;;;;;;4920394;28;20051;-73
2022/12/20 02:33:46;;;;;;;6.80;4.95;;;10.80;99.90;;;;;;4972356;28;20054;-75
2022/12/20 02:36:16;;;;;;;6.72;3.53;;;10.80;99.90;;;;;;4948436;28;20039;-77
2022/12/20 02:38:45;;;;;;;6.30;3.63;;;10.80;99.90;;;;;;4946128;28;20054;-76
2022/12/20 02:41:38;;;;;;;6.45;3.38;;;10.80;99.90;;;;;;4968307;28;20043;-76
2022/12/20 02:47:01;;;;;;;5.35;3.72;;;10.90;99.90;;;;;;4955223;28;20058;-76
2022/12/20 02:49:33;;;;;;;4.60;2.58;;;11.00;99.90;;;;;;4937691;28;20076;-76
2022/12/20 02:52:02;;;;;;;7.47;2.95;;;11.00;99.90;;;;;;4970447;28;20229;-76
2022/12/20 02:54:30;;;;;;;5.60;2.75;;;11.00;99.90;;;;;;4967034;28;20406;-76
2022/12/20 02:57:15;;;;;;;8.85;3.58;;;11.10;99.90;;;;;;4938251;28;20480;-76
2022/12/20 02:59:55;;;;;;;6.35;3.80;;;11.10;99.90;;;;;;4952802;28;20051;-75
2022/12/20 03:02:24;;;;;;;7.70;3.03;;;11.10;99.90;;;;;;4953082;28;20449;-76
2022/12/20 03:04:54;;;;;;;6.20;3.67;;;11.10;99.90;;;;;;4963256;28;20074;-76
2022/12/20 03:07:22;;;;;;;7.10;3.10;;;11.10;99.90;;;;;;4941597;28;20035;-76
2022/12/20 03:09:50;;;;;;;8.05;3.25;;;11.10;99.90;;;;;;4968680;28;20051;-76
2022/12/20 03:12:17;;;;;;;4.30;3.15;;;11.20;99.90;;;;;;4970082;28;20047;-76
2022/12/20 03:14:44;;;;;;;7.82;3.58;;;11.20;99.90;;;;;;4965351;28;20043;-76
2022/12/20 03:17:13;;;;;;;6.10;3.03;;;11.20;99.90;;;;;;4940597;28;20051;-76
2022/12/20 03:19:41;;;;;;;3.97;2.60;;;11.20;99.90;;;;;;4936730;28;20059;-76
2022/12/20 03:22:10;;;;;;;5.45;3.30;;;11.20;99.90;;;;;;4953213;28;20138;-76
2022/12/20 03:24:38;;;;;;;7.55;3.30;;;11.20;99.90;;;;;;4963803;28;20145;-76
2022/12/20 03:27:10;;;;;;;7.72;3.75;;;11.20;99.90;;;;;;4962670;28;20039;-75
2022/12/20 03:29:38;;;;;;;8.05;3.03;;;11.10;99.90;;;;;;4948893;28;20063;-76
2022/12/20 03:32:06;;;;;;;21.30;4.47;;;11.10;99.90;;;;;;4950448;28;20464;-77
2022/12/20 03:34:34;;;;;;;8.57;3.45;;;11.10;99.90;;;;;;4957056;28;20047;-76
2022/12/20 03:37:01;;;;;;;7.80;3.05;;;11.10;99.90;;;;;;4967365;28;20062;-77
2022/12/20 03:39:29;;;;;;;7.25;3.03;;;11.10;99.90;;;;;;4952645;29;20474;-76
2022/12/20 03:41:58;;;;;;;7.53;3.33;;;11.10;99.90;;;;;;4952597;29;20074;-76
2022/12/20 03:44:26;;;;;;;5.47;3.28;;;11.10;99.90;;;;;;4922794;28;20054;-76
2022/12/20 03:46:54;;;;;;;7.53;3.33;;;11.10;99.90;;;;;;4968225;28;20415;-76
2022/12/20 03:49:21;;;;;;;5.60;3.05;;;11.00;99.90;;;;;;4953458;28;20043;-76
2022/12/20 03:51:50;;;;;;;7.32;3.67;;;11.00;99.90;;;;;;4936635;29;20047;-76
2022/12/20 03:54:18;;;;;;;6.78;4.00;;;10.90;99.90;;;;;;4921632;28;20387;-76
2022/12/20 03:57:06;;;;;;;10.00;4.95;;;10.80;99.90;;;;;;4967479;28;20486;-76
2022/12/20 03:59:34;;;;;;;8.88;4.95;;;10.80;99.90;;;;;;4936791;29;20067;-76
2022/12/20 04:02:03;;;;;;;6.32;3.67;;;10.80;99.90;;;;;;4952499;29;20070;-76
2022/12/20 04:04:31;;;;;;;6.82;4.38;;;10.70;99.90;;;;;;4937910;28;20043;-76
2022/12/20 04:06:58;;;;;;;7.68;5.30;;;10.60;99.90;;;;;;4967470;28;20047;-76
2022/12/20 04:09:27;;;;;;;6.00;4.13;;;10.60;99.90;;;;;;4920305;29;20051;-76
2022/12/20 04:12:01;;;;;;;11.00;5.00;;;10.50;99.90;;;;;;4952220;29;20047;-77
2022/12/20 04:14:30;;;;;;;8.45;5.07;;;10.50;99.90;;;;;;4953730;28;20081;-76
2022/12/20 04:16:58;;;;;;;8.30;5.40;;;10.40;99.90;;;;;;4972460;28;20049;-76
2022/12/20 04:19:26;;;;;;;9.30;5.70;;;10.40;99.90;;;;;;4955380;28;20077;-76
2022/12/20 04:21:55;;;;;;;8.23;4.78;;;10.30;99.90;;;;;;4954870;28;20053;-76
2022/12/20 04:24:29;;;;;;;7.03;4.65;;;10.30;99.90;;;;;;4970767;28;20064;-76
2022/12/20 04:27:23;;;;;;;9.80;5.20;;;10.30;99.90;;;;;;4960063;28;20074;-76
2022/12/20 04:29:53;;;;;;;6.90;4.75;;;10.30;99.90;;;;;;4936787;28;20051;-77
2022/12/20 04:32:21;;;;;;;8.88;4.72;;;10.30;99.90;;;;;;4952768;28;20118;-76
2022/12/20 04:34:49;;;;;;;8.23;4.47;;;10.20;99.90;;;;;;4955504;28;20098;-76
2022/12/20 04:37:17;;;;;;;7.65;4.60;;;10.20;99.90;;;;;;4965378;28;20070;-77
2022/12/20 04:39:55;;;;;;;9.25;4.63;;;10.20;99.90;;;;;;4935952;29;20450;-76
2022/12/20 04:42:26;;;;;;;7.80;4.47;;;10.20;99.90;;;;;;4952660;28;20058;-76
2022/12/20 04:44:55;;;;;;;8.00;5.03;;;10.20;99.90;;;;;;4939553;28;20043;-77
2022/12/20 04:47:26;;;;;;;6.53;3.35;;;10.20;99.90;;;;;;4964133;28;20046;-76
2022/12/20 04:49:54;;;;;;;9.35;5.43;;;10.10;99.90;;;;;;4951316;29;20070;-76
2022/12/20 04:55:11;;;;;;;8.85;4.95;;;10.10;99.90;;;;;;4942103;28;20047;-76
2022/12/20 04:57:39;;;;;;;8.00;4.43;;;10.10;99.90;;;;;;4961837;28;20050;-76
2022/12/20 05:00:07;;;;;;;6.47;4.18;;;10.10;99.90;;;;;;4951353;29;20043;-76
2022/12/20 05:02:39;;;;;;;6.35;4.38;;;10.10;99.90;;;;;;4951690;29;20047;-76
2022/12/20 05:05:10;;;;;;;7.43;4.70;;;10.00;99.90;;;;;;4940892;28;20085;-76
2022/12/20 05:07:45;;;;;;;9.13;5.22;;;10.00;99.90;;;;;;4961033;28;20074;-76
2022/12/20 05:10:13;;;;;;;8.88;4.95;;;10.00;99.90;;;;;;4935356;29;20078;-76
2022/12/20 05:12:42;;;;;;;7.85;4.30;;;10.00;99.90;;;;;;4951009;29;20047;-76
2022/12/20 05:15:16;;;;;;;9.18;4.85;;;9.90;99.90;;;;;;4957692;28;20042;-76
2022/12/20 05:17:44;;;;;;;8.73;4.57;;;9.90;99.90;;;;;;4961249;28;20528;-76
2022/12/20 05:20:12;;;;;;;8.18;4.90;;;10.00;99.90;;;;;;4953783;28;20078;-75
2022/12/20 05:28:16;;;;;;;6.50;3.92;;;9.90;99.90;;;;;;4957327;28;20051;-76
2022/12/20 05:30:44;;;;;;;6.03;4.43;;;9.90;99.90;;;;;;4934796;29;20062;-76
2022/12/20 05:33:12;;;;;;;10.80;5.45;;;9.90;99.90;;;;;;4919716;29;20055;-76
2022/12/20 05:35:42;;;;;;;12.48;5.18;;;9.90;99.90;;;;;;4960053;28;20066;-76
2022/12/20 05:38:13;;;;;;;10.45;5.80;;;9.90;99.90;;;;;;4964188;28;20050;-76
2022/12/20 05:40:41;;;;;;;8.38;5.03;;;9.90;99.90;;;;;;4954074;28;20054;-76
2022/12/20 05:43:10;;;;;;;7.65;4.60;;;9.90;99.90;;;;;;4954281;28;20066;-76
2022/12/20 05:45:49;;;;;;;7.60;4.70;;;9.90;99.90;;;;;;4969311;28;20053;-76
2022/12/20 05:48:21;;;;;;;10.45;5.85;;;10.00;99.90;;;;;;4970863;28;20105;-75
2022/12/20 05:50:49;;;;;;;8.13;5.55;;;9.90;99.90;;;;;;4960799;28;20070;-75
2022/12/20 05:53:30;;;;;;;8.63;4.70;;;9.90;99.90;;;;;;4963656;28;20616;-75
2022/12/20 05:56:01;;;;;;;7.18;5.13;;;9.90;99.90;;;;;;4967594;28;20405;-77
2022/12/20 05:58:32;;;;;;;10.60;7.13;;;9.90;99.90;;;;;;4960548;28;20035;-75
2022/12/20 06:01:03;;;;;;;10.68;6.07;;;9.80;99.90;;;;;;4960116;28;20047;-75
2022/12/20 06:03:36;;;;;;;12.63;8.43;;;9.80;99.90;;;;;;4957188;28;20049;-75
2022/12/20 06:06:08;;;;;;;13.82;7.22;;;9.80;99.90;;;;;;4956086;28;20035;-76
2022/12/20 06:08:38;;;;;;;12.73;6.57;;;9.80;99.90;;;;;;4960467;28;20051;-75
2022/12/20 06:11:09;;;;;;;9.23;6.88;;;9.90;99.90;;;;;;4978575;28;20051;-75
2022/12/20 06:13:47;;;;;;;13.52;7.45;;;9.90;99.90;;;;;;4943685;29;20145;-76
2022/12/20 06:16:15;;;;;;;11.05;7.78;;;9.90;99.90;;;;;;4950162;28;20043;-76
2022/12/20 06:18:42;;;;;;;11.52;7.70;;;9.90;99.90;;;;;;4940172;29;20055;-76
2022/12/20 06:21:12;;;;;;;11.85;7.35;;;10.00;99.90;;;;;;4950304;29;20093;-75
2022/12/20 06:23:39;;;;;;;12.32;8.10;;;10.10;99.90;;;;;;4936154;29;20167;-77
2022/12/20 06:26:10;;;;;;;9.95;7.65;;;10.50;99.90;;;;;;4934221;29;20047;-76
2022/12/20 06:28:51;;;;;;;11.88;7.05;;;11.10;99.90;;;;;;4963413;28;20046;-76
2022/12/20 06:31:27;;;;;;;8.25;6.65;;;11.70;99.90;;;;;;4950243;28;20055;-76
2022/12/20 06:33:55;;;;;;;10.90;7.10;;;12.40;99.90;;;;;;4952812;28;20055;-76
2022/12/20 06:36:29;;;;;;;10.15;7.78;;;13.00;99.90;;;;;;4968839;28;20497;-75
2022/12/20 06:38:57;;;;;;;15.85;8.85;;;13.70;99.90;;;;;;4957439;28;20086;-76
2022/12/20 06:41:25;;;;;;;10.85;6.20;;;14.20;99.90;;;;;;4949953;29;20055;-76
2022/12/20 06:43:54;;;;;;;8.00;4.45;;;14.80;99.90;;;;;;4949462;29;20088;-76
2022/12/20 06:46:22;;;;;;;6.40;3.95;;;15.40;99.90;;;;;;4949703;29;20067;-76
2022/12/20 06:48:49;;;;;;;7.30;4.45;;;16.00;99.90;;;;;;4955461;28;20163;-76
2022/12/20 06:51:18;;;;;;;6.00;3.55;;;16.60;99.90;;;;;;4949224;29;20043;-76
2022/12/20 06:53:46;;;;;;;6.00;4.15;;;17.10;99.90;;;;;;4949365;28;20043;-76
2022/12/20 06:56:14;;;;;;;9.10;5.15;;;17.70;99.90;;;;;;4933708;29;20047;-76
2022/12/20 06:58:42;;;;;;;6.75;4.70;;;18.30;99.90;;;;;;4956558;28;20110;-76
2022/12/20 07:01:09;;;;;;;5.72;3.80;;;18.90;99.90;;;;;;4933718;29;20150;-76
2022/12/20 07:03:37;;;;;;;6.35;4.07;;;19.40;99.90;;;;;;4950309;28;20470;-75
2022/12/20 07:06:05;;;;;;;8.63;3.78;;;20.10;99.90;;;;;;4949700;28;20134;-75
2022/12/20 07:08:32;;;;;;;6.05;3.78;;;20.50;99.90;;;;;;4927357;29;20616;-75
2022/12/20 07:11:07;;;;;;;6.65;4.20;;;20.80;99.90;;;;;;4954586;28;20130;-76
2022/12/20 07:13:34;;;;;;;8.45;4.28;;;21.30;99.90;;;;;;4955396;28;20066;-75
2022/12/20 07:16:03;;;;;;;7.85;4.75;;;21.80;99.40;;;;;;4952906;29;20044;-75
2022/12/20 07:18:31;;;;;;;10.80;4.65;;;22.10;98.70;;;;;;4958925;28;20155;-75
2022/12/20 07:21:04;;;;;;;8.90;5.00;;;22.50;98.00;;;;;;4954220;28;20525;-75
2022/12/20 07:23:32;;;;;;;7.40;4.28;;;22.70;97.40;;;;;;4952842;29;20054;-76
2022/12/20 07:26:00;;;;;;;12.18;5.00;;;23.10;96.90;;;;;;4953348;29;20051;-75
2022/12/20 07:28:28;;;;;;;8.32;4.53;;;23.50;96.30;;;;;;4959970;28;20031;-75
2022/12/20 07:31:00;;;;;;;7.93;4.72;;;23.90;95.60;;;;;;4954334;28;20062;-75
2022/12/20 07:33:28;;;;;;;10.40;6.57;;;24.20;95.10;;;;;;4953017;29;20059;-75
2022/12/20 07:36:04;;;;;;;10.07;7.10;;;24.50;94.70;;;;;;4952682;28;20043;-75
2022/12/20 07:38:34;;;;;;;10.50;6.63;;;24.50;94.40;;;;;;4958614;28;20079;-77
2022/12/20 07:41:09;;;;;;;13.90;8.18;;;24.70;94.10;;;;;;4954244;28;20363;-76
2022/12/20 07:43:37;;;;;;;11.80;8.07;;;24.70;93.90;;;;;;4952373;29;20523;-75
2022/12/20 07:46:06;;;;;;;13.13;7.68;;;24.30;94.10;;;;;;4954093;28;20070;-75
2022/12/20 07:48:35;;;;;;;12.27;7.70;;;24.00;94.10;;;;;;4959721;28;20055;-75
2022/12/20 07:51:08;;;;;;;12.32;8.48;;;23.70;94.40;;;;;;4953894;28;20641;-77
2022/12/20 07:53:39;;;;;;;17.75;8.90;;;23.40;94.50;;;;;;4920785;29;20062;-75
2022/12/20 07:56:09;;;;;;;13.23;7.00;;;23.20;94.90;;;;;;4952648;29;20149;-75
2022/12/20 07:58:39;;;;;;;11.07;7.55;;;22.70;95.20;;;;;;4959861;28;20043;-74
2022/12/20 08:01:09;;;;;;;10.75;5.80;;;22.30;95.50;;;;;;4952712;29;20525;-75
2022/12/20 08:03:42;;;;;;;7.85;5.65;;;22.00;95.90;;;;;;4953247;28;20399;-74
2022/12/20 08:06:11;;;;;;;10.30;5.60;;;21.60;96.20;;;;;;4953607;28;20074;-74
2022/12/20 08:08:46;;;;;;;9.63;6.47;;;21.40;96.80;;;;;;4959298;28;20057;-74
2022/12/20 08:11:14;;;;;;;10.80;6.28;;;21.20;96.90;;;;;;4954026;28;20133;-74
2022/12/20 08:13:42;;;;;;;10.85;7.05;;;20.80;97.10;;;;;;4938812;28;20057;-75
2022/12/20 08:16:12;;;;;;;10.77;6.03;;;20.60;97.80;;;;;;4972786;28;20046;-75
2022/12/20 08:18:39;;;;;;;11.93;7.05;;;20.30;98.20;;;;;;4969877;28;20050;-75
2022/12/20 08:21:07;;;;;;;12.93;6.57;;;20.20;98.30;;;;;;4970040;28;20069;-75
2022/12/20 08:23:35;;;;;;;7.70;5.45;;;20.10;98.80;;;;;;4972298;28;20429;-74
2022/12/20 08:26:02;;;;;;;10.93;5.13;;;20.10;98.70;;;;;;4971401;28;20059;-75
2022/12/20 08:28:30;;;;;;;9.65;5.65;;;20.00;99.30;;;;;;4965393;28;20051;-74
2022/12/20 08:31:05;;;;;;;8.30;5.53;;;19.90;99.00;;;;;;4954872;28;20094;-75
2022/12/20 08:33:34;;;;;;;10.27;6.47;;;19.60;99.60;;;;;;4971832;28;20830;-76
2022/12/20 08:36:05;;;;;;;6.80;4.55;;;19.30;99.90;;;;;;4946209;29;20172;-75
2022/12/20 08:38:33;;;;;;;6.57;4.80;;;19.00;99.90;;;;;;4957890;28;20043;-76
2022/12/20 08:41:12;;;;;;;9.15;5.57;;;18.70;99.90;;;;;;4951726;29;20098;-74
2022/12/20 08:43:40;;;;;;;7.30;4.38;;;18.60;99.90;;;;;;4951897;29;20074;-75
2022/12/20 08:46:10;;;;;;;9.50;4.38;;;18.30;99.90;;;;;;4952606;29;20069;-74
2022/12/20 08:48:39;;;;;;;10.15;6.28;;;18.20;99.90;;;;;;4957296;28;20050;-75
2022/12/20 08:51:09;;;;;;;5.93;4.20;;;18.10;99.90;;;;;;4952841;28;20397;-74
2022/12/20 08:53:37;;;;;;;9.52;5.78;;;18.10;99.90;;;;;;4951368;29;20046;-75
2022/12/20 08:56:08;;;;;;;10.35;6.45;;;17.90;99.90;;;;;;4951603;28;20048;-75
2022/12/20 08:58:37;;;;;;;10.30;5.38;;;17.90;99.90;;;;;;4958774;28;20102;-76
2022/12/20 09:01:07;;;;;;;7.40;4.97;;;17.90;99.90;;;;;;4951583;29;20063;-74
2022/12/20 09:03:36;;;;;;;8.57;5.97;;;17.90;99.90;;;;;;4952139;28;20054;-74
2022/12/20 09:06:13;;;;;;;7.88;4.85;;;18.00;99.90;;;;;;4954870;28;20051;-75
2022/12/20 09:08:41;;;;;;;9.40;5.70;;;18.10;99.90;;;;;;4956469;28;20053;-74
2022/12/20 09:11:11;;;;;;;8.40;5.82;;;18.20;99.90;;;;;;4951239;29;20393;-74
2022/12/20 09:13:44;;;;;;;8.07;5.13;;;18.30;99.90;;;;;;4934819;29;20494;-75
2022/12/20 09:16:14;;;;;;;6.95;4.85;;;18.30;99.90;;;;;;4951547;29;20059;-75
2022/12/20 09:18:42;;;;;;;7.75;5.63;;;18.40;99.90;;;;;;4958196;28;20066;-75
2022/12/20 09:21:10;;;;;;;6.75;4.50;;;18.50;99.90;;;;;;4935136;29;20059;-74
2022/12/20 09:23:39;;;;;;;10.52;5.78;;;18.60;99.90;;;;;;4950326;29;20051;-75
2022/12/20 09:26:11;;;;;;;14.68;6.32;;;18.70;99.90;;;;;;4950639;29;20044;-75
2022/12/20 09:28:40;;;;;;;10.18;5.72;;;18.70;99.90;;;;;;4940609;28;20050;-74
2022/12/20 09:31:11;;;;;;;9.93;6.13;;;18.80;99.90;;;;;;4951644;28;20264;-74
2022/12/20 09:33:39;;;;;;;7.82;4.82;;;18.80;99.90;;;;;;4952052;28;20051;-75
2022/12/20 09:36:10;;;;;;;9.85;5.30;;;18.90;99.90;;;;;;4950589;29;20051;-76
2022/12/20 09:38:37;;;;;;;9.25;5.65;;;19.10;99.90;;;;;;4956460;28;20119;-75
2022/12/20 09:41:07;;;;;;;9.75;4.55;;;19.20;99.90;;;;;;4951401;28;20098;-74
2022/12/20 09:43:36;;;;;;;10.10;4.53;;;19.40;99.90;;;;;;4950276;29;20138;-74
2022/12/20 09:46:04;;;;;;;11.60;6.30;;;19.40;99.90;;;;;;4952043;28;20153;-75
2022/12/20 09:48:35;;;;;;;10.18;5.55;;;19.50;99.90;;;;;;4957749;28;20055;-75
2022/12/20 09:51:44;;;;;;;10.27;5.53;;;19.40;99.90;;;;;;4934250;29;20095;-75
2022/12/20 09:54:38;;;;;;;8.95;5.07;;;19.20;99.90;;;;;;4951554;28;20136;-76
2022/12/20 09:57:24;;;;;;;9.88;5.72;;;19.30;99.90;;;;;;4950256;29;20176;-75
2022/12/20 09:59:57;;;;;;;14.60;7.22;;;19.40;99.90;;;;;;4949978;28;20114;-75
2022/12/20 10:02:25;;;;;;;9.45;6.03;;;19.60;99.90;;;;;;4971170;28;20054;-74
2022/12/20 10:05:51;;;;;;;11.45;5.60;;;19.60;99.90;;;;;;4969774;28;20043;-74
2022/12/20 10:08:59;;;;;;;13.60;6.55;;;19.60;99.90;;;;;;4968732;28;20043;-75
2022/12/20 10:12:00;;;;;;;6.35;3.95;;;19.40;99.90;;;;;;4968669;28;20561;-75
2022/12/20 10:14:33;;;;;;;7.63;3.40;;;19.00;99.90;;;;;;4953422;28;20125;-74
2022/12/20 10:17:20;;;;;;;8.95;3.65;;;18.60;99.90;;;;;;4970806;28;20097;-75
2022/12/20 10:20:10;;;;;;;4.82;1.70;;;18.50;99.90;;;;;;4964984;28;20094;-75
2022/12/20 10:23:14;;;;;;;2.90;2.15;;;18.60;99.90;;;;;;4969013;28;20510;-74
2022/12/20 10:25:43;;;;;;;3.08;1.60;;;18.70;99.90;;;;;;4930050;28;20182;-75
2022/12/20 10:28:14;;;;;;;3.60;2.20;;;18.80;99.90;;;;;;4931468;28;20142;-75
2022/12/20 10:30:43;;;;;;;4.93;2.35;;;18.80;99.90;;;;;;4969370;28;20560;-76
2022/12/20 10:33:22;;;;;;;4.03;1.75;;;19.00;99.90;;;;;;4967826;28;20413;-77
2022/12/20 10:35:51;;;;;;;3.58;2.13;;;19.10;99.90;;;;;;4968825;28;20049;-76
2022/12/20 10:38:19;;;;;;;3.28;1.90;;;19.20;99.90;;;;;;4970542;28;20181;-75
2022/12/20 10:41:02;;;;;;;5.03;2.70;;;19.10;99.90;;;;;;4969468;28;20050;-74
2022/12/20 10:44:03;;;;;;;3.92;1.98;;;19.00;99.90;;;;;;4970375;28;20402;-75
2022/12/20 10:46:55;;;;;;;3.58;1.90;;;19.10;99.90;;;;;;4952669;28;20573;-76
2022/12/20 10:49:29;;;;;;;4.97;2.10;;;19.10;99.90;;;;;;4963249;28;20053;-76
2022/12/20 10:52:10;;;;;;;4.57;2.00;;;19.30;99.90;;;;;;4937111;28;20517;-77
2022/12/20 10:54:40;;;;;;;2.80;1.90;;;19.30;99.80;;;;;;4968893;28;20059;-76
2022/12/20 10:57:26;;;;;;;3.55;2.10;;;19.20;99.70;;;;;;4969198;28;20051;-75
2022/12/20 11:00:02;;;;;;;7.90;3.67;;;19.20;99.80;;;;;;4964908;28;20142;-76
2022/12/20 11:02:35;;;;;;;5.60;2.55;;;19.20;99.80;;;;;;4967302;28;20057;-76
2022/12/20 11:05:09;;;;;;;11.02;4.13;;;19.20;99.80;;;;;;4968412;28;20121;-76
2022/12/20 11:08:14;;;;;;;5.35;2.65;;;19.30;99.90;;;;;;4933227;28;20090;-76
2022/12/20 11:11:21;;;;;;;5.03;2.80;;;19.20;99.70;;;;;;4950442;28;20178;-76
2022/12/20 11:13:50;;;;;;;5.07;2.60;;;18.90;99.90;;;;;;4933798;29;20055;-76
2022/12/20 11:16:39;;;;;;;4.90;2.70;;;18.80;99.90;;;;;;4949833;28;20079;-77
2022/12/20 11:19:25;;;;;;;2.97;1.92;;;18.50;99.90;;;;;;4956646;28;20065;-76
2022/12/20 11:22:04;;;;;;;4.40;2.10;;;18.40;99.90;;;;;;4950521;28;20043;-76
2022/12/20 11:24:41;;;;;;;4.95;2.58;;;18.20;99.90;;;;;;4950737;28;20043;-78
2022/12/20 11:27:41;;;;;;;4.70;2.35;;;18.20;99.90;;;;;;4950819;28;20607;-78
2022/12/20 11:30:19;;;;;;;3.22;1.85;;;18.40;99.90;;;;;;4965716;28;20137;-78
2022/12/20 11:33:18;;;;;;;4.22;1.92;;;18.50;99.90;;;;;;4968574;28;20047;-76
2022/12/20 11:36:23;;;;;;;7.30;3.45;;;18.60;99.90;;;;;;4935760;28;20485;-75
2022/12/20 11:39:35;;;;;;;3.30;2.05;;;18.60;99.90;;;;;;4934138;28;20149;-77
2022/12/20 11:42:13;;;;;;;6.80;2.25;;;18.50;99.90;;;;;;4924485;28;20429;-75
2022/12/20 11:44:53;;;;;;;3.28;2.22;;;18.10;99.90;;;;;;4949276;29;20039;-75
2022/12/20 11:47:57;;;;;;;5.33;2.33;;;18.10;99.90;;;;;;4949628;29;20051;-76
2022/12/20 11:50:46;;;;;;;4.00;2.60;;;18.10;99.90;;;;;;4968882;28;20035;-76
2022/12/20 11:53:19;;;;;;;7.25;4.22;;;18.30;99.90;;;;;;4952487;28;20134;-77
2022/12/20 11:55:51;;;;;;;4.45;2.55;;;18.60;99.90;;;;;;4953207;29;20059;-78
2022/12/20 11:58:28;;;;;;;3.60;2.30;;;18.80;99.90;;;;;;4953388;28;20054;-77
2022/12/20 12:01:06;;;;;;;4.47;2.05;;;18.70;99.90;;;;;;4972554;28;20081;-76
2022/12/20 12:03:36;;;;;;;4.03;2.70;;;18.60;99.90;;;;;;4953612;28;20094;-76
2022/12/20 12:06:10;;;;;;;4.13;2.00;;;18.50;99.90;;;;;;4958354;28;20039;-76
2022/12/20 12:08:45;;;;;;;4.80;2.13;;;18.50;99.90;;;;;;4973484;28;20068;-76
2022/12/20 12:11:18;;;;;;;3.03;1.95;;;18.50;99.90;;;;;;4971778;28;20062;-75
2022/12/20 12:14:13;;;;;;;3.47;2.10;;;18.40;99.90;;;;;;4972121;28;20051;-80
2022/12/20 12:16:46;;;;;;;4.82;2.47;;;18.40;99.90;;;;;;4971651;28;20122;-76
2022/12/20 12:19:14;;;;;;;4.75;2.65;;;18.50;99.90;;;;;;4962736;28;20055;-76
2022/12/20 12:21:46;;;;;;;4.43;2.42;;;18.60;99.90;;;;;;4959071;28;20051;-76
2022/12/20 12:24:28;;;;;;;3.78;2.42;;;18.60;99.90;;;;;;4972537;28;20039;-76
2022/12/20 12:26:58;;;;;;;3.63;2.10;;;18.50;99.90;;;;;;4968704;28;20035;-76
2022/12/20 12:29:28;;;;;;;5.35;2.55;;;18.20;99.90;;;;;;4962685;28;20047;-76
2022/12/20 12:32:02;;;;;;;4.10;2.40;;;18.00;99.90;;;;;;4960144;28;20042;-76
2022/12/20 12:35:08;;;;;;;3.72;2.33;;;17.80;99.90;;;;;;4972887;28;20047;-75
2022/12/20 12:37:57;;;;;;;3.50;2.30;;;17.60;99.90;;;;;;4971741;28;20142;-77
2022/12/20 12:40:43;;;;;;;4.00;2.30;;;17.50;99.90;;;;;;4951764;29;20039;-75
2022/12/20 12:43:53;;;;;;;3.63;2.60;;;17.60;99.90;;;;;;4971807;28;20129;-76
2022/12/20 12:46:31;;;;;;;3.72;2.10;;;17.70;99.90;;;;;;4973352;28;20057;-76
2022/12/20 12:49:14;;;;;;;3.47;2.13;;;17.80;99.90;;;;;;4967091;28;20557;-76
2022/12/20 12:51:49;;;;;;;3.90;2.40;;;18.00;99.90;;;;;;4957507;28;20042;-76
2022/12/20 12:54:43;;;;;;;3.78;2.72;;;17.80;99.90;;;;;;4955273;28;20452;-77
2022/12/20 12:57:15;;;;;;;2.88;2.03;;;17.40;99.90;;;;;;4967359;28;20054;-76
2022/12/20 12:59:48;;;;;;;4.00;2.28;;;17.30;99.90;;;;;;4958359;28;20474;-77
2022/12/20 13:02:16;;;;;;;4.63;2.85;;;17.10;99.90;;;;;;4961597;28;20054;-77
2022/12/20 13:05:07;;;;;;;4.32;2.40;;;17.00;99.90;;;;;;4970471;28;20051;-77
2022/12/20 13:07:35;;;;;;;3.47;2.10;;;16.90;99.90;;;;;;4954438;28;20071;-77
2022/12/20 13:10:08;;;;;;;5.63;2.20;;;16.80;99.90;;;;;;4967148;28;20125;-76
2022/12/20 13:12:36;;;;;;;4.18;2.28;;;16.90;99.90;;;;;;4959023;28;20051;-77
2022/12/20 13:15:19;;;;;;;3.08;1.77;;;16.80;99.90;;;;;;4952836;28;20059;-76
2022/12/20 13:18:00;;;;;;;6.20;2.30;;;16.80;99.90;;;;;;4952563;28;20110;-77
2022/12/20 13:20:29;;;;;;;2.88;2.03;;;16.90;99.90;;;;;;4952855;28;20501;-76
2022/12/20 13:23:22;;;;;;;5.40;3.10;;;17.00;99.90;;;;;;4956198;28;20043;-75
2022/12/20 13:25:51;;;;;;;3.53;2.40;;;17.00;99.90;;;;;;4949151;28;20052;-76
2022/12/20 13:28:20;;;;;;;4.40;2.45;;;17.00;99.90;;;;;;4952336;28;20043;-80
2022/12/20 13:31:10;;;;;;;4.55;3.15;;;16.90;99.90;;;;;;4971282;28;20054;-77